臺北飛航情報區 - 掃描席(區管/近場)

METAR RCTP 181100Z 06014KT 9999 FEW015 BKN025 BKN100 14/11 Q1020 NOSIG RMK A3014(X)=

站台狀態:Online
最後更新:2020-01-18 19:00:02